createdAt,value
2019-04-21T00:00:39.694Z,16.88
2019-04-21T00:03:09.918Z,16.88
2019-04-21T00:05:55.860Z,16.87
2019-04-21T00:08:37.074Z,16.88
2019-04-21T00:10:54.013Z,16.96
2019-04-21T00:13:12.017Z,17.00
2019-04-21T00:15:34.513Z,17.09
2019-04-21T00:17:57.050Z,17.01
2019-04-21T00:20:35.283Z,16.75
2019-04-21T00:23:10.220Z,16.66
2019-04-21T00:25:34.852Z,16.79
2019-04-21T00:28:09.222Z,16.88
2019-04-21T00:30:42.469Z,16.54
2019-04-21T00:32:53.971Z,16.51
2019-04-21T00:35:15.917Z,16.53
2019-04-21T00:38:00.346Z,16.79
2019-04-21T00:40:27.765Z,16.82
2019-04-21T00:42:52.469Z,16.51
2019-04-21T00:45:16.823Z,16.32
2019-04-21T00:47:48.043Z,16.53
2019-04-21T00:50:17.913Z,16.64
2019-04-21T00:52:57.597Z,16.74
2019-04-21T00:55:27.674Z,16.61
2019-04-21T00:57:45.466Z,16.69
2019-04-21T01:00:16.135Z,16.76
2019-04-21T01:02:46.819Z,16.51
2019-04-21T01:05:11.159Z,16.54
2019-04-21T01:07:31.517Z,16.57
2019-04-21T01:09:53.973Z,16.56
2019-04-21T01:12:25.473Z,16.57
2019-04-21T01:15:04.915Z,16.61
2019-04-21T01:17:25.807Z,16.25
2019-04-21T01:19:47.075Z,16.27
2019-04-21T01:21:57.271Z,16.41
2019-04-21T01:24:31.892Z,16.51
2019-04-21T01:27:01.029Z,16.50
2019-04-21T01:29:41.395Z,16.50
2019-04-21T01:32:12.882Z,16.57
2019-04-21T01:34:39.192Z,16.53
2019-04-21T01:36:58.859Z,16.51
2019-04-21T01:39:34.517Z,16.50
2019-04-21T01:41:58.827Z,16.42
2019-04-21T01:44:29.797Z,16.46
2019-04-21T01:46:49.330Z,16.41
2019-04-21T01:49:13.057Z,16.32
2019-04-21T01:51:59.333Z,16.27
2019-04-21T01:54:22.029Z,16.28
2019-04-21T01:56:51.346Z,16.28
2019-04-21T01:59:06.883Z,16.27
2019-04-21T02:01:46.062Z,16.26
2019-04-21T02:04:13.808Z,16.19
2019-04-21T02:06:45.585Z,16.21
2019-04-21T02:09:10.152Z,16.13
2019-04-21T02:11:43.233Z,16.18
2019-04-21T02:14:29.886Z,16.16
2019-04-21T02:16:34.518Z,16.17
2019-04-21T02:18:58.876Z,15.97
2019-04-21T02:21:24.495Z,15.74
2019-04-21T02:23:58.739Z,15.74
2019-04-21T02:26:31.570Z,15.91
2019-04-21T02:28:57.479Z,15.95
2019-04-21T02:31:37.617Z,15.93
2019-04-21T02:41:21.473Z,14.01
2019-04-21T02:43:52.457Z,13.53
2019-04-21T02:46:23.867Z,13.57
2019-04-21T02:48:50.870Z,13.13
2019-04-21T02:51:17.506Z,13.08
2019-04-21T02:54:03.793Z,13.40
2019-04-21T02:56:11.662Z,12.94
2019-04-21T02:58:44.036Z,12.95
2019-04-21T03:01:23.879Z,12.85
2019-04-21T03:06:32.968Z,13.28
2019-04-21T03:08:58.805Z,13.19
2019-04-21T03:11:35.021Z,13.37
2019-04-21T03:13:58.025Z,13.40
2019-04-21T03:16:23.551Z,13.73
2019-04-21T03:18:54.643Z,13.90
2019-04-21T03:21:16.309Z,13.99
2019-04-21T03:26:20.501Z,14.38
2019-04-21T03:28:36.887Z,14.41
2019-04-21T03:36:38.454Z,14.49
2019-04-21T03:38:38.491Z,14.57
2019-04-21T03:40:57.750Z,14.59
2019-04-21T03:48:27.038Z,14.88
2019-04-21T03:50:59.009Z,14.90
2019-04-21T03:53:18.609Z,14.88
2019-04-21T03:55:53.174Z,14.93
2019-04-21T03:58:28.071Z,14.97
2019-04-21T04:01:02.788Z,14.93
2019-04-21T04:08:57.579Z,13.75
2019-04-21T04:11:19.681Z,13.92
2019-04-21T04:16:10.165Z,14.36
2019-04-21T04:18:46.745Z,14.20
2019-04-21T04:21:13.036Z,14.49
2019-04-21T04:23:41.682Z,14.58
2019-04-21T04:26:00.357Z,14.64
2019-04-21T04:28:39.846Z,14.66
2019-04-21T04:30:52.425Z,14.71
2019-04-21T04:33:34.405Z,14.72
2019-04-21T04:36:05.934Z,14.70
2019-04-21T04:38:22.360Z,14.81
2019-04-21T04:40:59.806Z,14.68
2019-04-21T04:48:13.591Z,14.65
2019-04-21T04:53:13.594Z,14.72
2019-04-21T04:55:41.010Z,14.75
2019-04-21T04:58:22.179Z,14.60
2019-04-21T05:00:35.004Z,14.73
2019-04-21T05:02:56.023Z,14.73
2019-04-21T05:07:57.299Z,14.75
2019-04-21T05:10:31.103Z,14.71
2019-04-21T05:12:50.976Z,14.74
2019-04-21T05:15:12.639Z,14.39
2019-04-21T05:17:48.509Z,14.59
2019-04-21T05:20:11.590Z,14.65
2019-04-21T05:22:35.518Z,14.62
2019-04-21T05:24:56.624Z,14.61
2019-04-21T05:27:25.638Z,14.56
2019-04-21T05:30:00.003Z,14.51
2019-04-21T05:32:36.095Z,14.55
2019-04-21T05:34:56.953Z,14.59
2019-04-21T05:37:25.765Z,14.69
2019-04-21T05:39:53.143Z,14.70
2019-04-21T05:42:11.022Z,14.69
2019-04-21T05:44:58.776Z,14.71
2019-04-21T05:49:46.645Z,14.63
2019-04-21T05:52:08.152Z,14.63
2019-04-21T05:54:53.055Z,14.66
2019-04-21T05:57:09.926Z,14.61
2019-04-21T05:59:51.541Z,14.64
2019-04-21T06:02:16.600Z,14.63
2019-04-21T06:04:54.782Z,14.68
2019-04-21T06:07:13.968Z,14.76
2019-04-21T06:09:39.972Z,14.85
2019-04-21T06:11:56.721Z,14.86
2019-04-21T06:14:29.404Z,14.81
2019-04-21T06:16:55.667Z,14.82
2019-04-21T06:19:31.167Z,14.83
2019-04-21T06:21:44.787Z,14.83
2019-04-21T06:24:15.747Z,14.85
2019-04-21T06:29:14.986Z,14.84
2019-04-21T06:34:08.086Z,14.93
2019-04-21T06:36:42.285Z,14.96
2019-04-21T06:44:03.024Z,15.15
2019-04-21T06:46:44.815Z,15.19
2019-04-21T06:49:01.289Z,15.28
2019-04-21T06:51:27.305Z,15.31
2019-04-21T06:53:59.339Z,15.35
2019-04-21T06:56:27.129Z,15.40
2019-04-21T06:58:42.833Z,15.47
2019-04-21T07:01:21.631Z,15.54
2019-04-21T07:03:48.667Z,15.58
2019-04-21T07:06:12.591Z,15.62
2019-04-21T07:08:44.691Z,15.61
2019-04-21T07:11:03.965Z,15.67
2019-04-21T07:13:30.964Z,15.74
2019-04-21T07:16:05.585Z,15.83
2019-04-21T07:18:29.801Z,15.88
2019-04-21T07:20:53.181Z,15.94
2019-04-21T07:23:26.202Z,15.98
2019-04-21T07:25:51.423Z,16.04
2019-04-21T07:28:22.006Z,16.10
2019-04-21T07:30:45.330Z,16.19
2019-04-21T07:33:33.583Z,16.27
2019-04-21T07:35:38.377Z,16.31
2019-04-21T07:38:04.378Z,16.42
2019-04-21T07:40:29.058Z,16.49
2019-04-21T07:42:59.081Z,16.56
2019-04-21T07:45:22.458Z,16.63
2019-04-21T07:47:59.269Z,16.71
2019-04-21T07:50:33.165Z,16.78
2019-04-21T07:53:05.203Z,16.82
2019-04-21T07:57:47.492Z,16.99
2019-04-21T08:02:49.699Z,17.13
2019-04-21T08:07:53.808Z,17.31
2019-04-21T08:10:10.507Z,17.40
2019-04-21T08:12:36.318Z,17.49
2019-04-21T08:15:18.102Z,17.59
2019-04-21T08:17:38.316Z,17.68
2019-04-21T08:19:59.081Z,17.76
2019-04-21T08:22:33.490Z,17.85
2019-04-21T08:24:59.393Z,17.94
2019-04-21T08:27:32.397Z,18.00
2019-04-21T08:29:52.170Z,18.08
2019-04-21T08:32:28.325Z,18.16
2019-04-21T08:34:54.876Z,18.23
2019-04-21T08:37:18.190Z,18.34
2019-04-21T08:39:59.707Z,18.46
2019-04-21T08:42:13.206Z,18.54
2019-04-21T08:44:45.204Z,18.63
2019-04-21T08:47:14.141Z,18.74
2019-04-21T08:49:39.261Z,18.81
2019-04-21T08:52:34.675Z,18.89
2019-04-21T08:54:32.689Z,18.98
2019-04-21T08:57:10.404Z,19.08
2019-04-21T08:59:50.674Z,19.19
2019-04-21T09:02:23.634Z,19.26
2019-04-21T09:04:50.820Z,19.32
2019-04-21T09:07:22.723Z,19.34
2019-04-21T09:09:44.439Z,19.45
2019-04-21T09:12:10.580Z,19.49
2019-04-21T09:14:39.549Z,19.54
2019-04-21T09:17:00.459Z,19.64
2019-04-21T09:19:44.327Z,19.66
2019-04-21T09:22:02.358Z,19.66
2019-04-21T09:24:26.692Z,19.74
2019-04-21T09:26:51.410Z,19.81
2019-04-21T09:29:16.034Z,19.79
2019-04-21T09:31:39.203Z,19.80
2019-04-21T09:34:03.206Z,19.80
2019-04-21T09:36:36.205Z,19.85
2019-04-21T09:39:00.051Z,19.88
2019-04-21T09:41:25.532Z,19.86
2019-04-21T09:43:53.662Z,19.97
2019-04-21T09:46:18.542Z,19.94
2019-04-21T09:48:53.791Z,19.98
2019-04-21T09:51:13.114Z,20.10
2019-04-21T09:53:42.225Z,20.07
2019-04-21T09:56:11.765Z,20.18
2019-04-21T09:58:40.720Z,20.24
2019-04-21T10:01:12.313Z,20.27
2019-04-21T10:03:39.625Z,20.33
2019-04-21T10:05:58.732Z,20.31
2019-04-21T10:08:25.535Z,20.40
2019-04-21T10:10:53.029Z,20.42
2019-04-21T10:13:23.057Z,20.46
2019-04-21T10:15:51.911Z,20.44
2019-04-21T10:18:21.527Z,20.48
2019-04-21T10:20:49.044Z,20.56
2019-04-21T10:23:15.626Z,20.63
2019-04-21T10:25:43.322Z,20.60
2019-04-21T10:28:11.007Z,20.63
2019-04-21T10:30:38.545Z,20.67
2019-04-21T10:33:06.178Z,20.71
2019-04-21T10:35:33.532Z,20.79
2019-04-21T10:38:12.913Z,20.82
2019-04-21T10:40:32.042Z,20.85
2019-04-21T10:42:56.397Z,20.92
2019-04-21T10:45:25.107Z,20.97
2019-04-21T10:47:52.705Z,21.09
2019-04-21T10:50:18.830Z,21.05
2019-04-21T10:52:53.152Z,21.02
2019-04-21T10:55:36.710Z,21.08
2019-04-21T10:57:52.717Z,21.16
2019-04-21T11:00:20.059Z,21.18
2019-04-21T11:02:48.711Z,21.20
2019-04-21T11:05:16.478Z,21.23
2019-04-21T11:07:55.222Z,21.24
2019-04-21T11:10:14.049Z,21.27
2019-04-21T11:12:41.400Z,21.36
2019-04-21T11:15:09.293Z,21.35
2019-04-21T11:17:36.455Z,21.39
2019-04-21T11:20:04.569Z,21.47
2019-04-21T11:22:34.943Z,21.50
2019-04-21T11:25:00.989Z,21.60
2019-04-21T11:27:28.851Z,21.64
2019-04-21T11:29:56.058Z,21.67
2019-04-21T11:32:23.651Z,21.74
2019-04-21T11:34:51.517Z,21.81
2019-04-21T11:37:19.847Z,21.81
2019-04-21T11:39:55.036Z,21.83
2019-04-21T11:42:15.609Z,21.85
2019-04-21T11:44:42.094Z,21.88
2019-04-21T11:47:10.292Z,22.00
2019-04-21T11:49:37.155Z,21.89
2019-04-21T11:52:04.916Z,22.02
2019-04-21T11:54:32.913Z,22.07
2019-04-21T11:57:03.077Z,22.15
2019-04-21T11:59:27.983Z,22.05
2019-04-21T12:01:54.920Z,22.10
2019-04-21T12:04:23.459Z,22.07
2019-04-21T12:06:52.183Z,22.15
2019-04-21T12:09:18.846Z,22.18
2019-04-21T12:11:45.391Z,22.15
2019-04-21T12:14:12.630Z,22.20
2019-04-21T12:16:41.249Z,22.25
2019-04-21T12:19:09.182Z,22.33
2019-04-21T12:21:50.514Z,22.42
2019-04-21T12:24:03.607Z,22.35
2019-04-21T12:26:31.966Z,22.46
2019-04-21T12:28:59.698Z,22.37
2019-04-21T12:31:43.786Z,22.40
2019-04-21T12:34:12.103Z,22.43
2019-04-21T12:36:39.965Z,22.40
2019-04-21T12:39:08.403Z,22.29
2019-04-21T12:41:34.315Z,22.40
2019-04-21T12:44:02.647Z,22.42
2019-04-21T12:46:30.086Z,22.54
2019-04-21T12:48:58.063Z,22.65
2019-04-21T12:51:25.999Z,22.82
2019-04-21T12:53:54.325Z,22.76
2019-04-21T12:56:23.290Z,22.59
2019-04-21T12:58:49.607Z,22.76
2019-04-21T13:01:17.150Z,22.80
2019-04-21T13:03:45.828Z,22.78
2019-04-21T13:06:13.905Z,22.80
2019-04-21T13:08:51.857Z,22.73
2019-04-21T13:11:09.701Z,22.83
2019-04-21T13:13:35.765Z,22.77
2019-04-21T13:16:03.317Z,22.88
2019-04-21T13:18:31.265Z,22.99
2019-04-21T13:21:00.750Z,23.13
2019-04-21T13:23:27.146Z,23.09
2019-04-21T13:25:55.988Z,23.05
2019-04-21T13:28:22.910Z,23.02
2019-04-21T13:30:50.673Z,22.94
2019-04-21T13:33:17.234Z,22.98
2019-04-21T13:35:44.864Z,23.10
2019-04-21T13:38:24.246Z,22.97
2019-04-21T13:40:58.311Z,23.02
2019-04-21T13:43:10.731Z,23.07
2019-04-21T13:45:37.494Z,23.12
2019-04-21T13:48:06.459Z,23.16
2019-04-21T13:50:33.414Z,23.20
2019-04-21T13:53:00.917Z,23.24
2019-04-21T13:55:29.714Z,23.23
2019-04-21T13:57:56.892Z,23.30
2019-04-21T14:00:24.280Z,23.19
2019-04-21T14:02:52.504Z,23.26
2019-04-21T14:05:20.294Z,23.27
2019-04-21T14:07:48.054Z,23.22
2019-04-21T14:10:16.076Z,23.24
2019-04-21T14:12:42.845Z,23.32
2019-04-21T14:15:10.399Z,23.35
2019-04-21T14:17:39.118Z,23.46
2019-04-21T14:20:05.401Z,23.46
2019-04-21T14:22:33.978Z,23.40
2019-04-21T14:25:03.687Z,23.35
2019-04-21T14:27:30.330Z,23.42
2019-04-21T14:29:57.809Z,23.41
2019-04-21T14:32:26.537Z,23.45
2019-04-21T14:34:54.055Z,23.41
2019-04-21T14:37:20.516Z,23.41
2019-04-21T14:39:55.888Z,23.52
2019-04-21T14:42:16.010Z,23.42
2019-04-21T14:44:42.970Z,23.49
2019-04-21T14:47:16.119Z,23.54
2019-04-21T14:49:44.973Z,23.56
2019-04-21T14:52:16.636Z,23.61
2019-04-21T14:54:47.001Z,23.74
2019-04-21T14:57:15.544Z,23.74
2019-04-21T14:59:42.840Z,23.75
2019-04-21T15:02:09.895Z,23.81
2019-04-21T15:04:37.702Z,23.83
2019-04-21T15:07:05.579Z,23.95
2019-04-21T15:09:35.595Z,24.06
2019-04-21T15:12:00.313Z,24.01
2019-04-21T15:14:27.773Z,24.00
2019-04-21T15:16:56.729Z,24.13
2019-04-21T15:19:22.792Z,24.11
2019-04-21T15:21:50.350Z,24.12
2019-04-21T15:24:18.352Z,24.09
2019-04-21T15:26:46.432Z,24.09
2019-04-21T15:29:12.957Z,24.18
2019-04-21T15:31:43.118Z,24.24
2019-04-21T15:34:07.950Z,24.17
2019-04-21T15:36:35.644Z,24.20
2019-04-21T15:39:03.604Z,24.21
2019-04-21T15:41:30.713Z,24.26
2019-04-21T15:44:01.028Z,24.36
2019-04-21T15:46:26.780Z,24.35
2019-04-21T15:48:53.463Z,24.32
2019-04-21T15:51:21.971Z,24.37
2019-04-21T15:53:49.814Z,24.30
2019-04-21T15:56:31.043Z,24.31
2019-04-21T15:58:58.981Z,24.33
2019-04-21T16:01:28.278Z,24.39
2019-04-21T16:03:58.668Z,24.41
2019-04-21T16:06:23.426Z,24.30
2019-04-21T16:08:53.824Z,24.36
2019-04-21T16:11:18.160Z,24.29
2019-04-21T16:13:45.905Z,24.48
2019-04-21T16:16:14.560Z,24.59
2019-04-21T16:18:40.640Z,24.65
2019-04-21T16:21:08.271Z,24.65
2019-04-21T16:23:36.182Z,24.74
2019-04-21T16:26:04.388Z,24.73
2019-04-21T16:28:31.163Z,24.69
2019-04-21T16:30:58.495Z,24.69
2019-04-21T16:33:27.052Z,24.79
2019-04-21T16:35:53.753Z,24.71
2019-04-21T16:38:21.639Z,24.61
2019-04-21T16:40:55.611Z,24.57
2019-04-21T16:43:16.337Z,24.65
2019-04-21T16:45:44.446Z,24.70
2019-04-21T16:48:10.906Z,24.60
2019-04-21T16:50:39.495Z,24.52
2019-04-21T16:53:08.152Z,24.48
2019-04-21T16:55:37.155Z,24.34
2019-04-21T16:58:23.097Z,24.24
2019-04-21T17:01:02.720Z,24.13
2019-04-21T17:03:24.341Z,23.98
2019-04-21T17:05:51.806Z,23.97
2019-04-21T17:08:19.767Z,23.95
2019-04-21T17:11:00.149Z,23.93
2019-04-21T17:13:13.997Z,23.92
2019-04-21T17:15:55.477Z,23.78
2019-04-21T17:18:25.574Z,23.66
2019-04-21T17:20:45.045Z,23.56
2019-04-21T17:23:04.020Z,23.44
2019-04-21T17:25:32.077Z,23.18
2019-04-21T17:27:58.775Z,23.20
2019-04-21T17:30:28.353Z,23.20
2019-04-21T17:32:55.467Z,23.11
2019-04-21T17:35:22.779Z,23.09
2019-04-21T17:37:50.084Z,22.96
2019-04-21T17:40:24.088Z,22.89
2019-04-21T17:42:56.683Z,22.84
2019-04-21T17:45:19.274Z,22.75
2019-04-21T17:47:52.447Z,22.69
2019-04-21T17:50:17.791Z,22.67
2019-04-21T17:52:55.536Z,22.60
2019-04-21T17:55:27.522Z,22.55
2019-04-21T17:58:03.362Z,22.52
2019-04-21T18:00:57.433Z,22.51
2019-04-21T18:03:01.939Z,22.44
2019-04-21T18:05:32.144Z,22.35
2019-04-21T18:07:54.833Z,22.33
2019-04-21T18:10:24.655Z,22.30
2019-04-21T18:12:43.562Z,22.23
2019-04-21T18:15:18.115Z,22.25
2019-04-21T18:17:28.724Z,22.19
2019-04-21T18:19:57.119Z,22.11
2019-04-21T18:22:44.310Z,22.08
2019-04-21T18:25:12.586Z,22.00
2019-04-21T18:27:36.609Z,21.93
2019-04-21T18:30:04.261Z,21.87
2019-04-21T18:32:35.346Z,21.83
2019-04-21T18:35:14.176Z,21.77
2019-04-21T18:38:04.551Z,21.75
2019-04-21T18:40:29.673Z,21.69
2019-04-21T18:43:30.876Z,21.71
2019-04-21T18:48:04.968Z,21.70
2019-04-21T18:50:47.820Z,21.68
2019-04-21T18:53:23.924Z,21.46
2019-04-21T18:55:46.696Z,21.49
2019-04-21T18:58:11.841Z,21.35
2019-04-21T19:00:39.802Z,21.38
2019-04-21T19:03:04.178Z,21.26
2019-04-21T19:05:32.260Z,21.44
2019-04-21T19:08:14.740Z,21.31
2019-04-21T19:10:47.743Z,21.27
2019-04-21T19:13:38.065Z,21.39
2019-04-21T19:15:41.373Z,21.31
2019-04-21T19:18:35.698Z,21.30
2019-04-21T19:20:34.900Z,21.28
2019-04-21T19:23:06.822Z,21.27
2019-04-21T19:25:31.521Z,21.21
2019-04-21T19:27:59.027Z,21.22
2019-04-21T19:30:38.511Z,20.89
2019-04-21T19:32:58.057Z,20.46
2019-04-21T19:35:09.353Z,20.61
2019-04-21T19:37:45.192Z,20.44
2019-04-21T19:40:18.020Z,20.37
2019-04-21T19:42:39.979Z,20.23
2019-04-21T19:45:19.247Z,20.33
2019-04-21T19:47:50.425Z,20.41
2019-04-21T19:50:19.398Z,20.37
2019-04-21T19:52:33.110Z,20.57
2019-04-21T19:54:52.579Z,20.67
2019-04-21T19:57:20.911Z,20.52
2019-04-21T19:59:53.223Z,20.38
2019-04-21T20:02:18.614Z,20.44
2019-04-21T20:04:53.456Z,20.52
2019-04-21T20:07:26.258Z,20.50
2019-04-21T20:10:03.494Z,20.59
2019-04-21T20:12:38.169Z,20.71
2019-04-21T20:14:59.368Z,20.73
2019-04-21T20:17:17.641Z,20.67
2019-04-21T20:19:32.314Z,20.63
2019-04-21T20:22:00.923Z,20.58
2019-04-21T20:24:30.261Z,20.50
2019-04-21T20:27:03.534Z,20.45
2019-04-21T20:29:46.960Z,20.40
2019-04-21T20:32:08.361Z,20.37
2019-04-21T20:34:40.014Z,20.45
2019-04-21T20:37:02.083Z,20.36
2019-04-21T20:39:19.352Z,20.43
2019-04-21T20:41:54.042Z,20.25
2019-04-21T20:44:28.206Z,19.86
2019-04-21T20:46:49.337Z,20.15
2019-04-21T20:49:15.416Z,19.83
2019-04-21T20:51:54.351Z,20.05
2019-04-21T20:54:17.315Z,19.73
2019-04-21T20:56:45.174Z,19.80
2019-04-21T20:59:12.104Z,19.90
2019-04-21T21:01:55.392Z,19.80
2019-04-21T21:04:07.419Z,19.62
2019-04-21T21:06:36.155Z,19.87
2019-04-21T21:09:04.790Z,19.88
2019-04-21T21:14:17.621Z,19.81
2019-04-21T21:17:31.721Z,19.29
2019-04-21T21:19:35.134Z,19.18
2019-04-21T21:21:56.357Z,19.61
2019-04-21T21:24:46.126Z,19.40
2019-04-21T21:27:10.326Z,19.25
2019-04-21T21:29:41.791Z,19.50
2019-04-21T21:32:16.233Z,19.59
2019-04-21T21:34:45.388Z,19.40
2019-04-21T21:37:21.658Z,19.54
2019-04-21T21:42:13.421Z,19.59
2019-04-21T21:44:49.567Z,19.16
2019-04-21T21:47:31.909Z,18.92
2019-04-21T21:49:58.183Z,18.89
2019-04-21T21:52:36.749Z,19.16
2019-04-21T21:54:51.929Z,19.14
2019-04-21T21:57:28.429Z,19.20
2019-04-21T22:00:12.345Z,19.24
2019-04-21T22:02:47.670Z,19.01
2019-04-21T22:05:22.035Z,19.23
2019-04-21T22:07:49.316Z,19.08
2019-04-21T22:10:20.181Z,19.04
2019-04-21T22:13:00.756Z,18.96
2019-04-21T22:15:26.775Z,18.90
2019-04-21T22:18:15.046Z,18.95
2019-04-21T22:20:42.147Z,18.95
2019-04-21T22:23:08.758Z,19.05
2019-04-21T22:28:07.441Z,19.06
2019-04-21T22:33:17.738Z,19.03
2019-04-21T22:35:50.411Z,18.33
2019-04-21T22:41:10.627Z,17.64
2019-04-21T22:43:43.902Z,17.71
2019-04-21T22:46:15.333Z,17.75
2019-04-21T22:48:51.738Z,17.77
2019-04-21T22:51:26.603Z,17.48
2019-04-21T22:53:55.487Z,17.45
2019-04-21T23:01:47.463Z,17.59
2019-04-21T23:04:12.414Z,17.70
2019-04-21T23:09:24.546Z,17.79
2019-04-21T23:12:00.004Z,17.75
2019-04-21T23:14:32.473Z,17.66
2019-04-21T23:17:29.803Z,17.61
2019-04-21T23:20:10.246Z,17.55
2019-04-21T23:22:59.662Z,17.44
2019-04-21T23:25:22.278Z,17.73
2019-04-21T23:27:56.408Z,17.41
2019-04-21T23:30:33.568Z,17.10
2019-04-21T23:32:51.404Z,17.19
2019-04-21T23:35:24.927Z,17.17
2019-04-21T23:37:55.723Z,17.09
2019-04-21T23:40:25.258Z,16.84
2019-04-21T23:45:39.233Z,17.15
2019-04-21T23:48:23.524Z,17.05
2019-04-21T23:50:46.627Z,16.90
2019-04-21T23:53:15.494Z,16.85
2019-04-21T23:55:50.679Z,16.83
2019-04-21T23:58:26.403Z,16.87
